This demonstration page uses our WeatherBlox Daily Observations layout. Learn more.

41.55636, -103.73856

Hourly Observations for January 9, 2019

Temp ( °F °C ) Dew Point ( °F °C ) Humidity (%) Winds ( mph kmh ) Pressure ( in mb ) Visibility ( mi km ) Precip ( " mm )
12:53 am 00:53 Clear 15 -9.4 7 -13.9 70 70 ESE 3 6 30.5 1033 10 16.09344 0 0
1:53 am 01:53 Clear 14 -10 7 -13.9 73 73 E 3 6 30.5 1033 10 16.09344 0 0
2:53 am 02:53 Clear 15 -9.4 8 -13.3 74 74 ENE 8 13 30.5 1033 10 16.09344 0 0
3:53 am 03:53 Clear 17 -8.3 9 -12.8 70 70 E 8 13 30.48 1032 10 16.09344 0 0
4:53 am 04:53 Clear 16 -8.9 9 -12.8 74 74 E 6 9 30.5 1033 10 16.09344 0 0
5:53 am 05:53 Clear 15 -9.4 8 -13.3 74 74 SE 3 6 30.53 1034 10 16.09344 0 0
6:53 am 06:53 Clear 15 -9.4 9 -12.8 77 77 E 8 13 30.5 1033 10 16.09344 0 0
7:53 am 07:53 Sunny 18 -7.8 11 -11.7 74 74 E 8 13 30.5 1033 10 16.09344 0 0
8:53 am 08:53 Sunny 22 -5.6 11 -11.7 63 63 ESE 13 20 30.48 1032 10 16.09344 0 0
9:53 am 09:53 Sunny 27 -2.8 12 -11.1 53 53 ESE 10 17 30.45 1031 10 16.09344 0 0
10:53 am 10:53 Sunny 30 -1.1 13 -10.6 49 49 ESE 16 26 30.39 1029 10 16.09344 0 0
11:53 am 11:53 Sunny 35 1.7 16 -8.9 46 46 E 16 26 30.33 1027 10 16.09344 0 0
12:53 pm 12:53 Sunny 42 5.6 19 -7.2 40 40 ESE 18 30 30.24 1024 10 16.09344 0 0
1:53 pm 13:53 Sunny 41 5 18 -7.8 39 39 ESE 20 31 30.24 1024 10 16.09344 0 0
2:53 pm 14:53 Sunny 41 5 17 -8.3 38 38 ESE 20 31 30.21 1023 10 16.09344 0 0
3:53 pm 15:53 Sunny 40 4.4 18 -7.8 41 41 ESE 15 24 30.21 1023 10 16.09344 0 0
4:53 pm 16:53 Clear 36 2.2 19 -7.2 50 50 ESE 13 20 30.24 1024 10 16.09344 0 0
5:53 pm 17:53 Clear 34 1.1 20 -6.7 56 56 ESE 13 20 30.24 1024 10 16.09344 0 0
6:53 pm 18:53 Clear 32 0 20 -6.7 61 61 SE 16 26 30.21 1023 10 16.09344 0 0
7:53 pm 19:53 Clear 29 -1.7 20 -6.7 69 69 ESE 12 19 30.21 1023 10 16.09344 0 0
8:53 pm 20:53 Clear 28 -2.2 21 -6.1 75 75 ESE 14 22 30.18 1022 10 16.09344 0 0
9:53 pm 21:53 Clear 26 -3.3 21 -6.1 81 81 E 12 19 30.18 1022 10 16.09344 0 0
10:53 pm 22:53 Clear 25 -3.9 22 -5.6 88 88 ESE 10 17 30.15 1021 10 16.09344 0 0
11:53 pm 23:53 Clear 23 -5 21 -6.1 92 92 ESE 6 9 30.15 1021 10 16.09344 0 0

Powered by AerisWeather